Time;durP1;ratioP1;P1;durP2;ratioP2;P2;SDS_P1;SDS_P2;PMS_P1;PMS_P2;Temp;Humidity;BMP_temperature;BMP_pressure;BME280_temperature;BME280_humidity;BME280_pressure;Samples;Min_cycle;Max_cycle;Signal;HPM_P1;HPM_P2
2022/10/12 00:01:09;;;;;;;;;4.00;4.00;;;;;14.19;53.48;101988.34;5037507;28;45327;-41
2022/10/12 00:03:35;;;;;;;;;8.33;2.00;;;;;14.26;53.83;101995.81;5037672;28;45325;-43
2022/10/12 00:06:04;;;;;;;;;7.00;4.00;;;;;14.27;53.95;101998.34;5037557;28;45349;-43
2022/10/12 00:08:31;;;;;;;;;7.67;4.67;;;;;14.21;53.81;101985.53;5037353;28;45313;-43
2022/10/12 00:10:56;;;;;;;;;3.67;3.00;;;;;14.26;53.95;101994.00;5037683;28;45210;-41
2022/10/12 00:13:22;;;;;;;;;4.00;4.00;;;;;14.23;53.67;101995.09;5037665;28;45665;-42
2022/10/12 00:15:47;;;;;;;;;5.00;3.67;;;;;14.25;53.77;101991.47;5037814;28;45289;-43
2022/10/12 00:18:12;;;;;;;;;2.67;2.67;;;;;14.11;54.27;101977.50;5037448;28;45446;-45
2022/10/12 00:20:38;;;;;;;;;4.00;4.00;;;;;14.20;54.18;101983.88;5037430;28;45504;-43
2022/10/12 00:23:03;;;;;;;;;4.33;4.00;;;;;14.14;54.00;101985.25;5037155;28;45447;-43
2022/10/12 00:25:29;;;;;;;;;7.33;3.67;;;;;14.17;53.97;101990.31;5037511;28;45328;-43
2022/10/12 00:27:54;;;;;;;;;9.33;4.00;;;;;14.18;54.60;101997.38;5037058;28;46290;-43
2022/10/12 00:30:20;;;;;;;;;4.67;4.67;;;;;14.10;54.58;101983.84;5037074;28;45440;-43
2022/10/12 00:32:45;;;;;;;;;8.00;4.67;;;;;14.14;54.76;101990.59;5037265;28;45285;-42
2022/10/12 00:35:11;;;;;;;;;4.67;4.33;;;;;14.15;54.61;101991.44;5019416;28;45456;-44
2022/10/12 00:37:36;;;;;;;;;9.67;6.00;;;;;14.13;54.97;101985.41;5035456;28;46192;-44
2022/10/12 00:40:02;;;;;;;;;4.00;4.00;;;;;14.15;54.39;101988.75;5037213;28;45380;-45
2022/10/12 00:42:27;;;;;;;;;5.00;2.67;;;;;14.12;54.62;102002.44;5037048;28;45237;-44
2022/10/12 00:44:52;;;;;;;;;6.33;4.00;;;;;14.10;54.90;101999.03;5036914;28;45331;-44
2022/10/12 00:47:30;;;;;;;;;6.33;6.00;;;;;14.10;54.93;101993.69;5036645;28;47402;-45
2022/10/12 00:50:04;;;;;;;;;3.67;3.67;;;;;14.09;54.50;102000.88;5036857;28;45289;-48
2022/10/12 00:52:53;;;;;;;;;5.67;5.33;;;;;14.08;54.64;101998.34;5035474;28;45405;-43
2022/10/12 00:55:23;;;;;;;;;8.33;5.33;;;;;14.06;55.29;101990.44;5036841;28;45252;-43
2022/10/12 00:57:50;;;;;;;;;7.67;4.00;;;;;14.01;55.28;101983.84;5036876;28;45396;-45
2022/10/12 01:00:17;;;;;;;;;6.00;6.00;;;;;13.97;55.07;101986.78;5036696;28;45381;-43
2022/10/12 01:02:47;;;;;;;;;5.33;3.67;;;;;14.01;55.38;101994.53;5036634;28;45376;-45
2022/10/12 01:05:13;;;;;;;;;4.00;4.00;;;;;13.97;55.33;101988.59;5037107;28;45254;-45
2022/10/12 01:07:39;;;;;;;;;3.33;3.00;;;;;13.97;55.49;101989.44;5036285;28;46284;-43
2022/10/12 01:10:05;;;;;;;;;8.00;4.00;;;;;13.97;55.74;101989.44;5036745;28;45224;-44
2022/10/12 01:12:31;;;;;;;;;6.67;3.00;;;;;13.96;55.83;101985.09;5036853;28;45501;-43
2022/10/12 01:14:57;;;;;;;;;5.67;5.00;;;;;13.93;55.99;101976.50;5036955;28;45503;-43
2022/10/12 01:17:40;;;;;;;;;6.00;4.00;;;;;13.93;55.85;101982.69;5036735;28;46371;-41
2022/10/12 01:20:30;;;;;;;;;3.67;3.00;;;;;13.90;55.80;101974.94;5036063;28;45358;-45
2022/10/12 01:23:17;;;;;;;;;8.00;4.00;;;;;13.89;55.95;101981.25;5036737;28;45536;-42
2022/10/12 01:26:05;;;;;;;;;7.00;4.33;;;;;13.88;56.31;101976.91;5035353;28;45514;-45
2022/10/12 01:29:05;;;;;;;;;6.00;4.00;;;;;13.87;56.14;101982.41;5036438;28;45337;-43
2022/10/12 01:32:34;;;;;;;;;4.33;3.67;;;;;13.87;56.17;101975.22;5036585;28;45463;-44
2022/10/12 01:35:09;;;;;;;;;9.33;5.67;;;;;13.86;56.05;101975.34;4933669;28;45463;-45
2022/10/12 01:37:55;;;;;;;;;6.33;3.00;;;;;13.85;56.26;101968.31;4936194;28;45481;-45
2022/10/12 01:40:32;;;;;;;;;6.33;4.00;;;;;13.85;56.26;101971.81;4935691;28;46629;-47
2022/10/12 01:42:58;;;;;;;;;4.00;4.00;;;;;13.84;56.50;101967.47;4935817;28;45484;-44
2022/10/12 01:45:23;;;;;;;;;5.00;4.33;;;;;13.84;56.70;101972.81;4935852;28;45473;-45
2022/10/12 01:47:52;;;;;;;;;6.33;4.00;;;;;13.85;56.24;101979.84;4936083;28;45577;-43
2022/10/12 01:50:20;;;;;;;;;7.67;3.67;;;;;13.83;56.41;101964.94;4935607;28;46445;-43
2022/10/12 01:52:46;;;;;;;;;4.00;4.00;;;;;13.84;56.73;101969.31;4935632;28;45592;-47
2022/10/12 01:55:30;;;;;;;;;7.00;5.00;;;;;13.81;56.54;101966.91;4935785;28;45534;-44
2022/10/12 01:58:20;;;;;;;;;8.00;6.00;;;;;13.80;56.89;101963.38;4938562;28;45297;-46
2022/10/12 02:00:55;;;;;;;;;8.00;6.00;;;;;13.76;56.83;101971.81;4938618;28;45428;-45
2022/10/12 02:03:34;;;;;;;;;6.67;5.00;;;;;13.70;56.84;101962.53;4938919;28;45354;-44
2022/10/12 02:06:07;;;;;;;;;4.67;4.33;;;;;13.72;57.23;101965.91;4999031;28;45236;-46
2022/10/12 02:08:40;;;;;;;;;7.00;7.00;;;;;13.71;57.41;101967.72;5039465;28;45524;-44
2022/10/12 02:11:11;;;;;;;;;6.00;6.00;;;;;13.68;57.40;101968.00;5039179;28;46100;-43
2022/10/12 02:14:03;;;;;;;;;8.67;6.33;;;;;13.69;57.48;101960.81;5039408;28;45378;-43
2022/10/12 02:16:38;;;;;;;;;7.00;6.00;;;;;13.67;57.60;101962.78;5028603;28;45225;-43
2022/10/12 02:19:08;;;;;;;;;8.00;4.67;;;;;13.56;57.40;101944.19;5039583;28;45360;-42
2022/10/12 02:21:34;;;;;;;;;9.33;6.00;;;;;13.63;57.88;101956.88;5039209;28;47340;-44
2022/10/12 02:24:04;;;;;;;;;7.67;7.00;;;;;13.65;57.79;101962.06;5038953;28;45347;-45
2022/10/12 02:26:32;;;;;;;;;10.67;5.00;;;;;13.63;57.75;101959.53;5039509;28;45222;-45
2022/10/12 02:29:02;;;;;;;;;9.33;6.33;;;;;13.63;57.58;101956.03;5039263;28;45319;-43
2022/10/12 02:31:35;;;;;;;;;8.33;5.00;;;;;13.59;57.57;101952.78;5039097;28;47256;-43
2022/10/12 02:34:26;;;;;;;;;9.33;6.00;;;;;13.60;57.53;101954.47;5038766;28;45257;-45
2022/10/12 02:37:02;;;;;;;;;7.67;3.00;;;;;13.57;57.54;101949.41;5039441;28;45179;-43
2022/10/12 02:39:32;;;;;;;;;10.67;8.33;;;;;13.56;57.74;101939.66;5039316;28;45456;-44
2022/10/12 02:42:04;;;;;;;;;9.67;4.67;;;;;13.50;58.14;101932.22;5039078;28;47069;-45
2022/10/12 02:44:33;;;;;;;;;10.00;9.00;;;;;13.55;57.94;101932.66;5038881;28;45488;-45
2022/10/12 02:47:01;;;;;;;;;10.33;7.33;;;;;13.55;57.94;101938.00;5039351;28;45414;-44
2022/10/12 02:49:29;;;;;;;;;9.67;7.67;;;;;13.54;57.57;101933.63;5038984;28;45257;-42
2022/10/12 02:51:56;;;;;;;;;8.00;6.00;;;;;13.53;57.71;101936.44;5038523;28;46950;-43
2022/10/12 02:54:21;;;;;;;;;8.67;8.67;;;;;13.49;58.22;101927.84;5038213;28;45328;-42
2022/10/12 02:56:47;;;;;;;;;7.00;7.00;;;;;13.48;57.91;101935.03;5038567;28;45249;-42
2022/10/12 02:59:14;;;;;;;;;10.00;8.00;;;;;13.47;58.13;101930.66;5039031;28;45348;-44
2022/10/12 03:01:40;;;;;;;;;11.67;8.00;;;;;13.46;57.94;101933.47;5038431;28;45275;-43
2022/10/12 03:04:06;;;;;;;;;18.33;8.00;;;;;13.45;58.28;101929.94;5038467;28;45331;-43
2022/10/12 03:06:31;;;;;;;;;8.00;8.00;;;;;13.31;58.02;101906.25;5038580;28;45360;-44
2022/10/12 03:08:56;;;;;;;;;8.00;7.00;;;;;13.38;58.22;101922.59;5038186;28;45233;-42
2022/10/12 03:11:22;;;;;;;;;15.00;8.00;;;;;13.40;57.75;101929.53;5038344;28;45261;-44
2022/10/12 03:13:54;;;;;;;;;10.00;10.00;;;;;13.37;57.96;101932.47;5038360;28;45290;-44
2022/10/12 03:16:20;;;;;;;;;11.33;7.00;;;;;13.35;58.29;101922.88;5038422;28;45283;-43
2022/10/12 03:18:45;;;;;;;;;9.67;7.67;;;;;13.33;58.83;101927.53;5038410;28;45481;-44
2022/10/12 03:21:11;;;;;;;;;11.67;8.33;;;;;13.30;58.94;101920.59;5038127;28;45257;-43
2022/10/12 03:23:37;;;;;;;;;11.00;8.00;;;;;13.28;58.62;101924.41;5038031;28;45412;-45
2022/10/12 03:26:03;;;;;;;;;8.33;6.33;;;;;13.22;58.55;101926.63;5038528;28;45406;-44
2022/10/12 03:28:29;;;;;;;;;10.00;9.00;;;;;13.18;58.36;101927.84;5038339;28;45714;-43
2022/10/12 03:30:55;;;;;;;;;12.00;8.00;;;;;13.13;58.48;101924.75;5038075;28;46628;-43
2022/10/12 03:33:20;;;;;;;;;10.67;8.00;;;;;13.02;58.34;101913.28;5038211;28;45331;-44
2022/10/12 03:35:46;;;;;;;;;10.00;8.67;;;;;12.96;59.35;101917.34;5038457;28;45379;-43
2022/10/12 03:38:13;;;;;;;;;8.00;8.00;;;;;13.00;59.25;101918.78;5038527;28;45451;-43
2022/10/12 03:40:39;;;;;;;;;7.67;7.67;;;;;13.00;59.57;101924.13;5038085;28;46125;-42
2022/10/12 03:43:04;;;;;;;;;8.33;8.00;;;;;12.99;59.37;101920.59;5037937;28;45303;-46
2022/10/12 03:45:30;;;;;;;;;9.00;7.00;;;;;12.95;59.18;101927.19;5038190;28;45236;-43
2022/10/12 03:47:55;;;;;;;;;9.00;9.00;;;;;12.63;59.52;101873.06;5038242;28;45419;-44
2022/10/12 03:50:21;;;;;;;;;11.33;7.33;;;;;12.93;59.87;101920.28;5037829;28;45937;-43
2022/10/12 03:52:46;;;;;;;;;7.67;6.33;;;;;12.93;59.46;101917.59;5037854;28;45345;-42
2022/10/12 03:55:12;;;;;;;;;13.67;8.00;;;;;12.93;58.83;101938.97;5020141;28;45511;-42
2022/10/12 03:57:37;;;;;;;;;13.67;9.67;;;;;12.78;59.01;101914.47;5038174;28;45426;-46
2022/10/12 04:00:03;;;;;;;;;10.33;8.00;;;;;12.87;59.51;101928.84;5037739;28;46218;-42
2022/10/12 04:02:28;;;;;;;;;13.33;9.00;;;;;12.85;59.53;101928.09;5037687;28;45344;-43
2022/10/12 04:04:54;;;;;;;;;10.33;7.67;;;;;12.82;59.35;101936.41;5037803;28;45353;-43
2022/10/12 04:07:19;;;;;;;;;8.67;8.33;;;;;12.81;59.17;101932.03;5037985;28;45401;-42
2022/10/12 04:09:45;;;;;;;;;9.67;8.67;;;;;12.77;59.51;101925.25;5037171;28;46282;-45
2022/10/12 04:12:10;;;;;;;;;9.00;9.00;;;;;12.71;59.15;101922.13;5037342;28;45364;-43
2022/10/12 04:14:35;;;;;;;;;11.67;8.00;;;;;12.67;59.56;101920.72;5037498;28;45305;-44
2022/10/12 04:17:02;;;;;;;;;9.33;8.67;;;;;12.65;59.89;101928.03;5037656;28;45489;-43
2022/10/12 04:19:28;;;;;;;;;9.33;8.67;;;;;12.61;59.53;101931.94;5036431;28;47079;-43
2022/10/12 04:21:53;;;;;;;;;9.00;8.00;;;;;12.52;58.81;101921.19;5037179;28;45333;-45
2022/10/12 04:24:19;;;;;;;;;13.33;9.33;;;;;12.53;60.18;101925.56;5037264;28;45349;-43
2022/10/12 04:26:44;;;;;;;;;13.67;9.00;;;;;12.50;59.91;101931.97;5037454;28;45367;-44
2022/10/12 04:29:12;;;;;;;;;8.00;8.00;;;;;12.40;60.10;101921.25;5037125;28;45524;-43
2022/10/12 04:31:37;;;;;;;;;10.33;9.00;;;;;12.50;60.43;101926.66;5037208;28;45330;-44
2022/10/12 04:34:02;;;;;;;;;11.33;9.33;;;;;12.45;60.73;101928.88;5037149;28;45504;-43
2022/10/12 04:36:28;;;;;;;;;12.33;7.00;;;;;12.54;60.39;101944.09;5037309;28;45424;-43
2022/10/12 04:38:53;;;;;;;;;10.00;9.00;;;;;12.55;60.52;101947.59;5036948;28;45444;-44
2022/10/12 04:41:19;;;;;;;;;13.00;9.67;;;;;12.55;60.31;101943.09;5036732;28;45261;-42
2022/10/12 04:43:44;;;;;;;;;10.67;9.00;;;;;12.56;60.71;101947.50;5037084;28;45335;-43
2022/10/12 04:46:10;;;;;;;;;13.33;10.67;;;;;12.58;61.29;101936.69;5037249;28;45370;-44
2022/10/12 04:48:36;;;;;;;;;12.33;11.00;;;;;12.59;61.17;101938.34;5036576;28;46964;-44
2022/10/12 04:51:01;;;;;;;;;10.67;8.33;;;;;12.59;60.71;101944.53;5037115;28;45395;-44
2022/10/12 04:53:26;;;;;;;;;10.00;8.00;;;;;12.59;61.10;101944.53;5036926;28;45296;-43
2022/10/12 04:55:52;;;;;;;;;15.00;9.00;;;;;12.62;61.37;101943.44;5037043;28;45391;-43
2022/10/12 04:58:17;;;;;;;;;20.00;10.00;;;;;12.62;61.18;101930.09;5036918;28;45301;-43
2022/10/12 05:00:42;;;;;;;;;14.00;9.00;;;;;12.62;60.34;101933.59;5036839;28;45388;-42
2022/10/12 05:03:08;;;;;;;;;14.33;9.00;;;;;12.61;60.67;101923.91;5036971;28;45383;-42
2022/10/12 05:05:34;;;;;;;;;48.50;37.00;;;;;12.58;60.81;101923.31;5036794;28;45479;-43
2022/10/12 05:08:00;;;;;;;;;73.25;58.00;;;;;12.57;60.26;101935.84;5036618;28;47119;-46
2022/10/12 05:10:26;;;;;;;;;76.75;61.50;;;;;12.53;60.72;101939.75;5036248;28;45449;-43
2022/10/12 05:12:51;;;;;;;;;59.00;47.75;;;;;12.47;60.08;101927.78;5036821;28;45405;-42
2022/10/12 05:15:17;;;;;;;;;48.25;42.50;;;;;12.43;60.94;101933.47;5036902;28;45316;-44
2022/10/12 05:17:42;;;;;;;;;28.33;24.00;;;;;12.39;60.73;101927.56;5036426;28;46959;-42
2022/10/12 05:20:08;;;;;;;;;28.33;19.00;;;;;12.32;61.45;101918.38;5036690;28;45280;-45
2022/10/12 05:22:33;;;;;;;;;14.00;10.00;;;;;12.33;60.67;101925.41;5036660;28;45431;-45
2022/10/12 05:24:59;;;;;;;;;18.00;14.33;;;;;12.31;61.62;101927.38;5035122;28;45511;-44
2022/10/12 05:27:24;;;;;;;;;18.00;14.00;;;;;12.30;61.24;101930.16;5035641;28;45305;-45
2022/10/12 05:29:49;;;;;;;;;13.00;13.00;;;;;12.27;61.38;101933.09;5036330;28;45345;-46
2022/10/12 05:32:16;;;;;;;;;14.33;11.67;;;;;12.24;61.36;101937.69;5039693;28;45416;-44
2022/10/12 05:34:41;;;;;;;;;13.00;12.67;;;;;12.26;61.30;101944.72;5040407;28;45375;-44
2022/10/12 05:37:06;;;;;;;;;22.00;14.00;;;;;12.23;61.61;101940.50;5039635;28;46169;-42
2022/10/12 05:39:32;;;;;;;;;12.33;11.67;;;;;12.24;61.90;101940.38;5039850;28;45377;-44
2022/10/12 05:41:57;;;;;;;;;27.00;23.00;;;;;12.25;61.81;101946.53;5039011;28;45317;-45
2022/10/12 05:44:23;;;;;;;;;20.67;16.33;;;;;12.20;61.68;101935.41;5039990;28;45759;-44
2022/10/12 05:46:48;;;;;;;;;14.00;14.00;;;;;12.23;61.40;101938.69;5039618;28;45971;-44
2022/10/12 05:49:14;;;;;;;;;16.00;11.67;;;;;12.22;61.83;101931.66;5039721;28;45359;-43
2022/10/12 05:51:39;;;;;;;;;21.33;14.00;;;;;12.20;61.57;101938.94;5039881;28;45371;-44
2022/10/12 05:54:05;;;;;;;;;27.33;20.33;;;;;12.11;62.12;101923.69;5039759;28;45483;-43
2022/10/12 05:56:31;;;;;;;;;19.33;18.00;;;;;12.20;62.31;101933.59;5039662;28;45975;-44
2022/10/12 05:58:56;;;;;;;;;27.00;26.33;;;;;12.19;62.07;101942.56;5039638;28;45343;-47
2022/10/12 06:01:21;;;;;;;;;33.75;31.75;;;;;12.18;62.49;101942.72;5039582;28;45855;-44
2022/10/12 06:03:47;;;;;;;;;24.33;20.33;;;;;12.16;62.36;101950.81;5040148;28;45439;-44
2022/10/12 06:06:12;;;;;;;;;22.33;19.67;;;;;12.17;62.33;101931.16;5039515;28;46048;-43
2022/10/12 06:08:38;;;;;;;;;17.00;16.67;;;;;12.14;62.64;101931.44;5038888;28;45482;-42
2022/10/12 06:11:03;;;;;;;;;18.00;15.00;;;;;12.13;62.86;101928.88;5039607;28;45383;-44
2022/10/12 06:13:28;;;;;;;;;16.33;12.33;;;;;12.11;62.87;101936.19;5039793;28;45381;-43
2022/10/12 06:15:54;;;;;;;;;11.33;6.33;;;;;12.10;62.60;101939.84;5039394;28;45796;-45
2022/10/12 06:18:20;;;;;;;;;13.00;10.00;;;;;12.07;62.40;101930.25;5039292;28;45550;-45
2022/10/12 06:20:51;;;;;;;;;16.67;12.67;;;;;12.03;62.85;101930.63;5038533;28;45340;-43
2022/10/12 06:23:17;;;;;;;;;20.67;11.00;;;;;12.06;63.08;101935.72;5039395;28;45225;-44
2022/10/12 06:25:45;;;;;;;;;15.00;9.33;;;;;12.05;62.68;101937.56;5038741;28;45380;-46
2022/10/12 06:28:11;;;;;;;;;9.33;9.00;;;;;12.06;62.80;101941.06;5038965;28;45367;-45
2022/10/12 06:30:36;;;;;;;;;14.00;12.00;;;;;12.07;62.80;101943.59;5038881;28;45283;-43
2022/10/12 06:33:02;;;;;;;;;12.00;11.67;;;;;12.08;63.58;101944.44;5039548;28;45398;-44
2022/10/12 06:35:27;;;;;;;;;12.67;10.67;;;;;12.16;62.72;101955.31;5021137;28;46285;-42
2022/10/12 06:37:52;;;;;;;;;13.67;12.00;;;;;12.20;63.10;101954.94;5020993;28;45362;-45
2022/10/12 06:40:18;;;;;;;;;15.33;9.67;;;;;12.26;62.70;101964.22;5039096;28;45462;-44
2022/10/12 06:42:44;;;;;;;;;15.33;12.33;;;;;12.33;63.01;101960.09;5038378;28;45321;-45
2022/10/12 06:45:10;;;;;;;;;16.67;12.67;;;;;12.38;62.49;101963.22;5038909;28;46288;-43
2022/10/12 06:47:35;;;;;;;;;15.33;9.67;;;;;12.46;62.20;101962.56;5038205;28;45216;-44
2022/10/12 06:50:01;;;;;;;;;13.00;10.33;;;;;12.53;62.40;101963.75;5038842;28;45259;-44
2022/10/12 06:52:26;;;;;;;;;13.00;12.00;;;;;12.63;61.98;101963.81;5039004;28;45490;-45
2022/10/12 06:54:51;;;;;;;;;11.00;9.00;;;;;12.72;61.92;101965.69;5038202;28;46161;-43
2022/10/12 06:57:17;;;;;;;;;18.67;14.00;;;;;12.77;62.03;101965.31;5038793;28;45295;-44
2022/10/12 06:59:42;;;;;;;;;14.33;12.33;;;;;12.83;62.32;101967.47;5038820;28;45249;-43
2022/10/12 07:02:10;;;;;;;;;14.33;13.33;;;;;12.90;62.00;101964.16;5039022;28;45543;-45
2022/10/12 07:04:36;;;;;;;;;19.33;16.00;;;;;12.96;61.66;101962.75;5038460;28;45391;-42
2022/10/12 07:07:01;;;;;;;;;14.33;12.00;;;;;13.01;62.05;101962.34;5038366;28;45253;-45
2022/10/12 07:09:27;;;;;;;;;15.00;12.33;;;;;13.12;61.68;101970.28;5037667;28;45424;-43
2022/10/12 07:11:53;;;;;;;;;14.33;11.67;;;;;13.15;61.63;101970.03;5038731;28;45316;-43
2022/10/12 07:14:18;;;;;;;;;13.33;10.67;;;;;13.25;61.59;101975.44;5038677;28;45958;-44
2022/10/12 07:16:43;;;;;;;;;17.67;14.00;;;;;13.31;61.56;101972.22;5038883;28;45404;-45
2022/10/12 07:19:09;;;;;;;;;15.00;11.33;;;;;13.36;61.52;101967.34;5038843;28;45288;-44
2022/10/12 07:21:34;;;;;;;;;17.00;13.33;;;;;13.43;61.31;101969.31;5038839;28;45364;-43
2022/10/12 07:23:59;;;;;;;;;13.00;9.00;;;;;13.46;61.18;101973.56;5038170;28;46148;-43
2022/10/12 07:26:25;;;;;;;;;21.33;11.33;;;;;13.51;61.08;101979.34;5038099;28;45363;-44
2022/10/12 07:28:50;;;;;;;;;16.00;14.00;;;;;13.59;61.04;101984.00;5038147;28;45574;-43
2022/10/12 07:31:15;;;;;;;;;15.67;13.67;;;;;13.67;60.83;101978.84;5038468;28;45395;-44
2022/10/12 07:33:41;;;;;;;;;14.67;12.33;;;;;13.79;60.99;101982.25;5038037;28;45971;-43
2022/10/12 07:36:07;;;;;;;;;14.67;14.67;;;;;13.88;60.15;101990.28;5038041;28;45316;-43
2022/10/12 07:38:32;;;;;;;;;18.33;15.33;;;;;14.00;59.80;101987.50;5038132;28;45346;-43
2022/10/12 07:41:00;;;;;;;;;22.33;13.67;;;;;14.07;59.30;101981.44;5037991;28;45332;-43
2022/10/12 07:43:25;;;;;;;;;16.67;14.67;;;;;14.20;59.42;101995.41;5037793;28;46214;-43
2022/10/12 07:45:51;;;;;;;;;16.67;15.00;;;;;14.33;59.47;101991.63;5037892;28;45398;-43
2022/10/12 07:48:16;;;;;;;;;22.67;16.67;;;;;14.46;59.21;101992.16;5037834;28;45513;-42
2022/10/12 07:50:42;;;;;;;;;19.33;16.67;;;;;14.59;58.54;101994.59;5038029;28;45413;-43
2022/10/12 07:53:07;;;;;;;;;19.33;14.33;;;;;14.67;58.39;101990.22;5019958;28;46242;-42
2022/10/12 07:55:32;;;;;;;;;14.67;13.67;;;;;14.82;58.00;102000.47;5037307;28;45426;-42
2022/10/12 07:57:59;;;;;;;;;20.00;17.33;;;;;14.90;57.88;101995.22;5037958;28;45841;-44
2022/10/12 08:00:27;;;;;;;;;23.33;19.67;;;;;14.91;57.74;101984.38;5037563;28;45234;-44
2022/10/12 08:02:52;;;;;;;;;20.33;19.00;;;;;15.07;57.25;101993.66;5037490;28;46261;-46
2022/10/12 08:05:20;;;;;;;;;19.33;16.33;;;;;15.15;57.37;101994.59;5037668;28;45258;-43
2022/10/12 08:07:46;;;;;;;;;18.67;16.00;;;;;15.18;56.93;101999.69;5037722;28;45387;-42
2022/10/12 08:10:12;;;;;;;;;19.33;16.67;;;;;15.26;56.82;101998.94;5036794;28;45518;-41
2022/10/12 08:12:37;;;;;;;;;16.67;16.67;;;;;15.39;56.80;102003.97;5036980;28;46291;-43
2022/10/12 08:15:03;;;;;;;;;21.00;17.00;;;;;15.51;56.53;102000.13;5036207;28;45426;-44
2022/10/12 08:17:28;;;;;;;;;17.67;16.00;;;;;15.67;56.06;102007.53;5037682;28;45315;-45
2022/10/12 08:19:54;;;;;;;;;17.33;15.33;;;;;15.78;55.33;102001.13;5037562;28;45305;-44
2022/10/12 08:22:19;;;;;;;;;23.33;19.00;;;;;15.95;55.01;102003.84;5037096;28;45237;-46
2022/10/12 08:24:44;;;;;;;;;20.33;14.00;;;;;16.14;54.66;101999.34;5037298;28;45318;-43
2022/10/12 08:27:10;;;;;;;;;24.33;20.67;;;;;16.34;53.95;102000.03;5037236;28;45322;-43
2022/10/12 08:29:35;;;;;;;;;31.33;20.67;;;;;16.69;53.15;102000.00;5037504;28;45475;-42
2022/10/12 08:32:00;;;;;;;;;23.67;22.33;;;;;18.22;50.00;102003.81;5036987;28;46852;-43
2022/10/12 08:34:26;;;;;;;;;31.67;20.67;;;;;19.85;46.07;101995.44;5037110;28;45369;-43
2022/10/12 08:36:52;;;;;;;;;28.67;18.67;;;;;21.25;43.12;101995.97;5037264;28;45294;-44
2022/10/12 08:39:17;;;;;;;;;26.33;22.00;;;;;22.05;40.86;101987.84;5037506;28;45450;-45
2022/10/12 08:42:18;;;;;;;;;25.33;23.00;;;;;23.13;39.47;101991.28;5036899;28;45992;-44
2022/10/12 08:44:55;;;;;;;;;25.33;21.00;;;;;24.50;36.82;101991.19;4975050;28;45527;-44
2022/10/12 08:47:37;;;;;;;;;27.67;23.00;;;;;25.27;36.08;101994.25;4975374;28;45289;-43
2022/10/12 08:50:04;;;;;;;;;31.00;22.33;;;;;25.92;33.39;101991.53;4975570;28;45408;-45
2022/10/12 08:52:34;;;;;;;;;24.75;24.75;;;;;26.17;33.34;101983.38;4974537;28;46371;-42
2022/10/12 08:55:25;;;;;;;;;24.25;21.75;;;;;26.02;33.78;101984.53;4974919;28;45518;-44
2022/10/12 08:57:50;;;;;;;;;30.50;21.50;;;;;25.68;33.32;101987.63;4974643;28;45559;-44
2022/10/12 09:00:16;;;;;;;;;33.50;22.75;;;;;25.51;34.01;101996.28;4975049;28;45527;-43
2022/10/12 09:03:00;;;;;;;;;26.25;24.50;;;;;25.48;34.78;101999.44;4974958;28;47133;-45
2022/10/12 09:05:34;;;;;;;;;29.25;25.25;;;;;25.44;34.57;101983.72;4976621;28;45443;-45
2022/10/12 09:08:09;;;;;;;;;26.50;24.25;;;;;25.61;34.21;101995.81;4981689;28;45282;-42
2022/10/12 09:11:01;;;;;;;;;31.50;25.50;;;;;25.82;33.71;101989.25;4981754;28;45446;-44
2022/10/12 09:13:46;;;;;;;;;27.75;22.75;;;;;26.30;33.72;101994.22;4981579;28;46125;-43
2022/10/12 09:16:20;;;;;;;;;32.40;30.00;;;;;27.20;32.66;101991.97;4981435;28;45379;-43
2022/10/12 09:18:51;;;;;;;;;23.00;17.80;;;;;28.33;31.10;101985.84;4981419;28;45498;-43
2022/10/12 09:21:18;;;;;;;;;26.25;21.75;;;;;29.33;29.34;101989.59;4998496;28;45891;-42
2022/10/12 09:23:45;;;;;;;;;25.00;25.00;;;;;30.06;27.59;101988.03;5043020;28;46265;-46
2022/10/12 09:26:27;;;;;;;;;27.60;21.20;;;;;30.61;28.15;101990.06;5042837;28;45368;-43
2022/10/12 09:28:56;;;;;;;;;26.20;24.60;;;;;30.86;27.24;101966.84;5043027;28;45416;-43
2022/10/12 09:31:59;;;;;;;;;27.50;25.50;;;;;30.75;27.05;101944.72;5043359;28;45434;-43
2022/10/12 09:34:25;;;;;;;;;24.60;22.00;;;;;31.24;28.72;101983.31;5042874;28;46045;-43
2022/10/12 09:36:50;;;;;;;;;30.00;24.50;;;;;31.57;26.80;101983.47;5042979;28;45368;-45
2022/10/12 09:39:19;;;;;;;;;28.50;24.00;;;;;31.82;26.58;101964.50;5043085;28;45307;-46
2022/10/12 09:41:47;;;;;;;;;32.00;28.20;;;;;31.89;25.88;101976.13;5043097;28;45356;-43
2022/10/12 09:44:27;;;;;;;;;29.40;23.20;;;;;32.11;26.32;101970.59;5042679;28;46257;-44
2022/10/12 09:46:59;;;;;;;;;37.80;27.20;;;;;32.39;27.24;101969.47;5042711;28;45349;-43
2022/10/12 09:49:45;;;;;;;;;39.40;29.40;;;;;32.64;25.66;101966.06;5042756;28;45420;-44
2022/10/12 09:52:12;;;;;;;;;33.80;26.80;;;;;32.86;25.00;101957.66;5042977;28;45337;-42
2022/10/12 09:54:47;;;;;;;;;32.80;29.20;;;;;33.19;24.90;101950.94;5042587;28;46291;-42
2022/10/12 09:57:35;;;;;;;;;32.80;28.60;;;;;33.64;25.19;101952.25;5042751;28;45395;-45
2022/10/12 10:00:07;;;;;;;;;36.00;26.40;;;;;33.84;23.68;101948.69;5042934;28;45273;-43
2022/10/12 10:02:46;;;;;;;;;27.40;25.40;;;;;34.13;24.37;101959.22;5042870;28;45342;-44
2022/10/12 10:05:24;;;;;;;;;34.40;29.40;;;;;33.38;24.43;101956.84;5042414;28;45394;-45
2022/10/12 10:07:49;;;;;;;;;26.00;22.60;;;;;33.37;24.72;101957.09;5042653;28;45258;-46
2022/10/12 10:10:20;;;;;;;;;38.75;29.75;;;;;32.57;25.07;101948.09;5042572;28;45882;-43
2022/10/12 10:12:54;;;;;;;;;31.40;27.00;;;;;31.20;26.67;101945.59;5042559;28;45301;-47
2022/10/12 10:15:24;;;;;;;;;25.00;24.60;;;;;30.73;27.64;101951.56;5042457;28;45506;-43
2022/10/12 10:17:54;;;;;;;;;32.40;25.40;;;;;30.66;27.41;101937.97;5038831;28;45404;-45
2022/10/12 10:20:30;;;;;;;;;30.60;21.40;;;;;29.78;28.94;101939.50;5039221;28;45459;-45
2022/10/12 10:22:57;;;;;;;;;35.60;29.40;;;;;29.09;29.63;101945.78;5039334;28;45344;-44
2022/10/12 10:25:23;;;;;;;;;24.20;23.20;;;;;28.65;30.22;101946.38;5038627;28;46236;-44
2022/10/12 10:28:07;;;;;;;;;32.50;27.00;;;;;28.06;30.63;101947.13;5038688;28;45254;-44
2022/10/12 10:30:33;;;;;;;;;31.00;26.00;;;;;27.72;31.20;101943.16;5039165;28;45467;-44
2022/10/12 10:33:34;;;;;;;;;25.25;23.25;;;;;27.92;31.63;101937.44;5039415;28;45360;-44
2022/10/12 10:36:22;;;;;;;;;37.00;30.60;;;;;27.89;31.82;101940.63;5024765;28;45435;-43
2022/10/12 10:38:48;;;;;;;;;27.20;26.00;;;;;28.16;31.22;101943.81;5038742;28;45273;-44
2022/10/12 10:41:18;;;;;;;;;34.50;24.75;;;;;28.34;31.23;101942.88;5037676;28;45372;-44
2022/10/12 10:43:48;;;;;;;;;32.20;27.00;;;;;28.82;30.45;101934.47;5038936;28;45487;-45
2022/10/12 10:46:21;;;;;;;;;27.60;24.60;;;;;29.21;30.05;101939.44;5037771;28;46312;-44
2022/10/12 10:49:00;;;;;;;;;22.00;22.00;;;;;29.37;30.55;101927.72;5038623;28;45223;-44
2022/10/12 10:51:45;;;;;;;;;25.40;23.40;;;;;29.49;30.47;101917.53;5039558;28;45426;-44
2022/10/12 10:54:24;;;;;;;;;25.80;22.60;;;;;29.69;29.46;101936.31;5040642;28;45389;-53
2022/10/12 10:56:55;;;;;;;;;27.00;21.40;;;;;29.69;29.80;101924.50;5038745;28;46250;-44
2022/10/12 10:59:34;;;;;;;;;26.00;19.40;;;;;29.85;29.79;101923.72;5038537;28;45532;-49
2022/10/12 11:02:10;;;;;;;;;26.80;19.00;;;;;29.86;29.19;101914.41;5038794;28;45418;-54
2022/10/12 11:04:42;;;;;;;;;27.60;22.60;;;;;30.08;28.81;101930.97;5038836;28;45255;-47
2022/10/12 11:07:22;;;;;;;;;24.60;23.00;;;;;30.35;29.01;101917.47;5038534;28;45360;-43
2022/10/12 11:09:54;;;;;;;;;31.40;23.40;;;;;30.86;28.71;101934.72;5038419;28;45409;-47
2022/10/12 11:12:29;;;;;;;;;21.20;18.20;;;;;30.52;28.61;101931.16;5038384;28;45431;-46
2022/10/12 11:15:03;;;;;;;;;24.60;20.60;;;;;31.15;28.65;101935.38;5038829;28;45434;-49
2022/10/12 11:17:33;;;;;;;;;20.20;18.40;;;;;31.78;27.07;101922.09;5038428;28;46218;-45
2022/10/12 11:20:29;;;;;;;;;20.20;17.20;;;;;31.92;27.09;101925.25;5038327;28;45331;-51
2022/10/12 11:23:03;;;;;;;;;20.20;16.40;;;;;32.07;26.33;101924.56;5038317;28;45550;-45
2022/10/12 11:25:46;;;;;;;;;19.80;18.60;;;;;31.53;27.49;101915.22;5038541;28;45411;-44